DLH811C LIBR-LTFM
Flight info
| Callsign | DLH811C |
|---|---|
| Flight time | 1h 25m |
| Altitude | 18000 |
| Route | FASAN M742 PAPIZ/N0452F350 DCT PINDO UM603 PEREN UN644 DIGTI T162 DRAMO |
| Aircraft | B738/M-SDGIJ1LRWY/SB1 |
Departure
| Time | 2026-04-18 07:06 |
|---|---|
| Airport | Brindisi Airport (LIBR) |
Arrival
| Time | 2026-04-18 08:31 |
|---|---|
| Airport | İstanbul Airport (LTFM) |
| Time | Latitude | Longitude | Altitude | Speed | Heading |
|---|---|---|---|---|---|
| 2026-04-18 06:25 | 40.65699 | 17.93926 | 43 ft | 0 kts | 322° |
| 2026-04-18 06:56 | 40.65694 | 17.93931 | 43 ft | 2 kts | 322° |
| 2026-04-18 06:57 | 40.65683 | 17.93943 | 43 ft | 2 kts | 323° |
| 2026-04-18 06:57 | 40.65659 | 17.93966 | 43 ft | 2 kts | 334° |
| 2026-04-18 06:57 | 40.65644 | 17.93973 | 43 ft | 2 kts | 349° |
| 2026-04-18 06:58 | 40.65630 | 17.93974 | 43 ft | 2 kts | 5° |
| 2026-04-18 06:58 | 40.65615 | 17.93971 | 43 ft | 2 kts | 20° |
| 2026-04-18 06:58 | 40.65601 | 17.93962 | 43 ft | 2 kts | 35° |
| 2026-04-18 06:58 | 40.65590 | 17.93950 | 44 ft | 1 kts | 49° |
| 2026-04-18 06:59 | 40.65586 | 17.93943 | 44 ft | 1 kts | 54° |
| 2026-04-18 06:59 | 40.65585 | 17.93941 | 44 ft | 0 kts | 53° |
| 2026-04-18 07:00 | 40.65586 | 17.93944 | 44 ft | 1 kts | 53° |
| 2026-04-18 07:01 | 40.65608 | 17.93980 | 43 ft | 7 kts | 53° |
| 2026-04-18 07:01 | 40.65651 | 17.94054 | 42 ft | 12 kts | 52° |
| 2026-04-18 07:01 | 40.65700 | 17.94136 | 40 ft | 10 kts | 51° |
| 2026-04-18 07:01 | 40.65740 | 17.94203 | 39 ft | 8 kts | 52° |
| 2026-04-18 07:02 | 40.65773 | 17.94260 | 38 ft | 10 kts | 53° |
| 2026-04-18 07:02 | 40.65837 | 17.94371 | 36 ft | 17 kts | 52° |
| 2026-04-18 07:02 | 40.65907 | 17.94489 | 34 ft | 15 kts | 52° |
| 2026-04-18 07:02 | 40.65966 | 17.94592 | 33 ft | 12 kts | 52° |
| 2026-04-18 07:03 | 40.66018 | 17.94682 | 32 ft | 11 kts | 63° |
| 2026-04-18 07:03 | 40.65995 | 17.94782 | 31 ft | 12 kts | 133° |
| 2026-04-18 07:03 | 40.65931 | 17.94870 | 31 ft | 15 kts | 137° |
| 2026-04-18 07:03 | 40.65853 | 17.94964 | 30 ft | 13 kts | 137° |
| 2026-04-18 07:04 | 40.65781 | 17.95052 | 30 ft | 14 kts | 137° |
| 2026-04-18 07:04 | 40.65715 | 17.95131 | 30 ft | 11 kts | 143° |
| 2026-04-18 07:04 | 40.65654 | 17.95130 | 30 ft | 7 kts | 215° |
| 2026-04-18 07:04 | 40.65628 | 17.95102 | 31 ft | 2 kts | 221° |
| 2026-04-18 07:05 | 40.65609 | 17.95075 | 31 ft | 6 kts | 227° |
| 2026-04-18 07:05 | 40.65580 | 17.95033 | 32 ft | 5 kts | 229° |
| 2026-04-18 07:05 | 40.65585 | 17.95001 | 32 ft | 5 kts | 309° |
| 2026-04-18 07:05 | 40.65626 | 17.94943 | 32 ft | 16 kts | 317° |
| 2026-04-18 07:06 | 40.65865 | 17.94652 | 33 ft | 80 kts | 317° |
| 2026-04-18 07:06 | 40.66428 | 17.93961 | 33 ft | 138 kts | 317° |
| 2026-04-18 07:06 | 40.67242 | 17.92957 | 175 ft | 172 kts | 317° |
| 2026-04-18 07:06 | 40.68054 | 17.91964 | 1034 ft | 159 kts | 321° |
| 2026-04-18 07:07 | 40.68843 | 17.90993 | 1787 ft | 153 kts | 321° |
| 2026-04-18 07:07 | 40.69559 | 17.89957 | 2369 ft | 159 kts | 317° |
| 2026-04-18 07:07 | 40.70320 | 17.88821 | 2844 ft | 171 kts | 317° |
| 2026-04-18 07:07 | 40.71127 | 17.87645 | 3396 ft | 178 kts | 318° |
| 2026-04-18 07:08 | 40.71960 | 17.86447 | 4029 ft | 181 kts | 317° |
| 2026-04-18 07:08 | 40.72822 | 17.85215 | 4618 ft | 187 kts | 317° |
| 2026-04-18 07:08 | 40.73740 | 17.83921 | 5064 ft | 202 kts | 317° |
| 2026-04-18 07:08 | 40.74730 | 17.82546 | 5542 ft | 217 kts | 317° |
| 2026-04-18 07:09 | 40.75790 | 17.81067 | 6057 ft | 231 kts | 313° |
| 2026-04-18 07:09 | 40.76550 | 17.79100 | 6588 ft | 254 kts | 285° |
| 2026-04-18 07:09 | 40.76613 | 17.76765 | 7370 ft | 262 kts | 270° |
| 2026-04-18 07:09 | 40.76460 | 17.74313 | 7850 ft | 279 kts | 271° |
| 2026-04-18 07:10 | 40.76438 | 17.71711 | 8524 ft | 284 kts | 277° |
| 2026-04-18 07:10 | 40.76765 | 17.69178 | 9242 ft | 284 kts | 294° |
| 2026-04-18 07:10 | 40.77792 | 17.67002 | 9993 ft | 281 kts | 319° |
| 2026-04-18 07:10 | 40.79470 | 17.65602 | 10634 ft | 284 kts | 343° |
| 2026-04-18 07:11 | 40.81655 | 17.65316 | 11149 ft | 297 kts | 9° |
| 2026-04-18 07:11 | 40.83795 | 17.66404 | 11638 ft | 313 kts | 33° |
| 2026-04-18 07:11 | 40.85496 | 17.68675 | 12093 ft | 332 kts | 52° |
| 2026-04-18 07:11 | 40.86671 | 17.71618 | 12465 ft | 354 kts | 70° |
| 2026-04-18 07:12 | 40.87076 | 17.75104 | 13130 ft | 366 kts | 83° |
| 2026-04-18 07:12 | 40.87115 | 17.78816 | 13829 ft | 373 kts | 87° |
| 2026-04-18 07:12 | 40.87074 | 17.82483 | 14539 ft | 379 kts | 87° |
| 2026-04-18 07:12 | 40.87055 | 17.86260 | 15304 ft | 383 kts | 86° |
| 2026-04-18 07:13 | 40.87080 | 17.90087 | 15983 ft | 388 kts | 85° |
| 2026-04-18 07:13 | 40.87143 | 17.94048 | 16774 ft | 390 kts | 85° |
| 2026-04-18 07:13 | 40.87225 | 17.97917 | 17458 ft | 395 kts | 85° |
| 2026-04-18 07:13 | 40.87319 | 18.01877 | 18121 ft | 399 kts | 85° |
| 2026-04-18 07:14 | 40.87415 | 18.05821 | 18764 ft | 404 kts | 84° |
| 2026-04-18 07:14 | 40.87514 | 18.09915 | 19406 ft | 409 kts | 84° |
| 2026-04-18 07:14 | 40.87609 | 18.13950 | 20075 ft | 411 kts | 84° |
| 2026-04-18 07:14 | 40.87703 | 18.18056 | 20717 ft | 415 kts | 84° |
| 2026-04-18 07:15 | 40.87793 | 18.22045 | 21320 ft | 418 kts | 84° |
| 2026-04-18 07:15 | 40.87882 | 18.26077 | 21886 ft | 422 kts | 83° |
| 2026-04-18 07:15 | 40.87971 | 18.30177 | 22439 ft | 426 kts | 83° |
| 2026-04-18 07:15 | 40.88060 | 18.34312 | 22950 ft | 430 kts | 83° |
| 2026-04-18 07:16 | 40.88148 | 18.38540 | 23530 ft | 433 kts | 83° |
| 2026-04-18 07:16 | 40.88233 | 18.42703 | 24072 ft | 436 kts | 83° |
| 2026-04-18 07:16 | 40.88320 | 18.47019 | 24574 ft | 441 kts | 83° |
| 2026-04-18 07:16 | 40.88405 | 18.51341 | 25086 ft | 444 kts | 83° |
| 2026-04-18 07:17 | 40.88487 | 18.55596 | 25611 ft | 447 kts | 83° |
| 2026-04-18 07:17 | 40.88569 | 18.59947 | 26083 ft | 450 kts | 83° |
| 2026-04-18 07:17 | 40.88649 | 18.64279 | 26560 ft | 453 kts | 83° |
| 2026-04-18 07:17 | 40.88727 | 18.68528 | 26963 ft | 457 kts | 84° |
| 2026-04-18 07:18 | 40.88802 | 18.72732 | 27475 ft | 459 kts | 84° |
| 2026-04-18 07:18 | 40.88876 | 18.76975 | 27853 ft | 463 kts | 84° |
| 2026-04-18 07:18 | 40.88949 | 18.81198 | 28231 ft | 466 kts | 84° |
| 2026-04-18 07:18 | 40.89022 | 18.85520 | 28604 ft | 470 kts | 84° |
| 2026-04-18 07:19 | 40.89059 | 18.89911 | 29042 ft | 473 kts | 85° |
| 2026-04-18 07:19 | 40.88911 | 18.94299 | 29362 ft | 480 kts | 90° |
| 2026-04-18 07:19 | 40.88467 | 18.98618 | 30071 ft | 478 kts | 95° |
| 2026-04-18 07:19 | 40.87801 | 19.02933 | 30618 ft | 478 kts | 98° |
| 2026-04-18 07:20 | 40.87019 | 19.07147 | 31052 ft | 479 kts | 99° |
| 2026-04-18 07:20 | 40.86170 | 19.11405 | 31425 ft | 481 kts | 100° |
| 2026-04-18 07:20 | 40.85298 | 19.15653 | 31814 ft | 481 kts | 101° |
| 2026-04-18 07:20 | 40.84415 | 19.19917 | 32167 ft | 482 kts | 101° |
| 2026-04-18 07:21 | 40.83531 | 19.24207 | 32554 ft | 481 kts | 101° |
| 2026-04-18 07:21 | 40.82655 | 19.28478 | 32997 ft | 480 kts | 101° |
| 2026-04-18 07:21 | 40.81784 | 19.32751 | 33342 ft | 480 kts | 101° |
| 2026-04-18 07:21 | 40.80931 | 19.36963 | 33678 ft | 480 kts | 101° |
| 2026-04-18 07:22 | 40.80075 | 19.41208 | 33973 ft | 481 kts | 101° |
| 2026-04-18 07:22 | 40.79214 | 19.45491 | 34285 ft | 481 kts | 101° |
| 2026-04-18 07:22 | 40.78355 | 19.49769 | 34640 ft | 480 kts | 101° |
| 2026-04-18 07:22 | 40.77497 | 19.54039 | 34833 ft | 481 kts | 101° |
| 2026-04-18 07:23 | 40.75772 | 19.62623 | 34903 ft | 490 kts | 101° |
| 2026-04-18 07:23 | 40.74007 | 19.71367 | 34894 ft | 492 kts | 102° |
| 2026-04-18 07:24 | 40.72236 | 19.80083 | 34894 ft | 492 kts | 102° |
| 2026-04-18 07:24 | 40.70444 | 19.88864 | 34911 ft | 493 kts | 102° |
| 2026-04-18 07:25 | 40.68646 | 19.97642 | 34913 ft | 491 kts | 102° |
| 2026-04-18 07:25 | 40.66853 | 20.06357 | 34919 ft | 492 kts | 102° |
| 2026-04-18 07:26 | 40.65051 | 20.15082 | 34935 ft | 492 kts | 102° |
| 2026-04-18 07:26 | 40.63250 | 20.23769 | 34944 ft | 492 kts | 102° |
| 2026-04-18 07:27 | 40.61449 | 20.32418 | 34949 ft | 492 kts | 102° |
| 2026-04-18 07:27 | 40.59625 | 20.41145 | 34963 ft | 493 kts | 102° |
| 2026-04-18 07:28 | 40.57806 | 20.49803 | 34981 ft | 492 kts | 103° |
| 2026-04-18 07:28 | 40.55981 | 20.58457 | 34975 ft | 492 kts | 103° |
| 2026-04-18 07:29 | 40.54139 | 20.67157 | 34968 ft | 492 kts | 103° |
| 2026-04-18 07:29 | 40.52292 | 20.75849 | 34979 ft | 493 kts | 104° |
| 2026-04-18 07:30 | 40.50440 | 20.84527 | 34972 ft | 493 kts | 104° |
| 2026-04-18 07:30 | 40.48609 | 20.93172 | 35002 ft | 493 kts | 102° |
| 2026-04-18 07:31 | 40.47330 | 21.01969 | 35008 ft | 490 kts | 96° |
| 2026-04-18 07:31 | 40.46484 | 21.10871 | 35005 ft | 490 kts | 94° |
| 2026-04-18 07:32 | 40.45732 | 21.19736 | 34987 ft | 488 kts | 94° |
| 2026-04-18 07:32 | 40.45081 | 21.28617 | 34999 ft | 488 kts | 90° |
| 2026-04-18 07:33 | 40.44995 | 21.37570 | 35007 ft | 487 kts | 86° |
| 2026-04-18 07:33 | 40.45141 | 21.46422 | 35000 ft | 488 kts | 86° |
| 2026-04-18 07:34 | 40.45300 | 21.55346 | 34986 ft | 489 kts | 86° |
| 2026-04-18 07:34 | 40.45417 | 21.64289 | 34987 ft | 489 kts | 86° |
| 2026-04-18 07:35 | 40.45497 | 21.73285 | 34975 ft | 489 kts | 87° |
| 2026-04-18 07:35 | 40.45557 | 21.82215 | 34982 ft | 489 kts | 87° |
| 2026-04-18 07:36 | 40.45606 | 21.91161 | 34972 ft | 490 kts | 88° |
| 2026-04-18 07:36 | 40.45647 | 22.00071 | 34970 ft | 489 kts | 88° |
| 2026-04-18 07:37 | 40.45681 | 22.09050 | 34962 ft | 488 kts | 88° |
| 2026-04-18 07:37 | 40.45708 | 22.17951 | 34973 ft | 489 kts | 88° |
| 2026-04-18 07:38 | 40.45729 | 22.26877 | 34953 ft | 488 kts | 88° |
| 2026-04-18 07:38 | 40.45744 | 22.35787 | 34951 ft | 490 kts | 88° |
| 2026-04-18 07:39 | 40.45752 | 22.44758 | 34961 ft | 491 kts | 88° |
| 2026-04-18 07:39 | 40.45756 | 22.53723 | 34948 ft | 489 kts | 88° |
| 2026-04-18 07:40 | 40.45755 | 22.62693 | 34956 ft | 491 kts | 88° |
| 2026-04-18 07:40 | 40.45748 | 22.71668 | 34939 ft | 491 kts | 89° |
| 2026-04-18 07:41 | 40.45733 | 22.80668 | 34947 ft | 491 kts | 89° |
| 2026-04-18 07:41 | 40.45711 | 22.89638 | 34948 ft | 490 kts | 89° |
| 2026-04-18 07:42 | 40.45826 | 22.98574 | 34947 ft | 489 kts | 84° |
| 2026-04-18 07:42 | 40.46714 | 23.07409 | 34947 ft | 487 kts | 78° |
| 2026-04-18 07:43 | 40.48010 | 23.16174 | 34952 ft | 487 kts | 76° |
| 2026-04-18 07:43 | 40.49368 | 23.24871 | 34950 ft | 487 kts | 76° |
| 2026-04-18 07:44 | 40.50699 | 23.33602 | 34954 ft | 488 kts | 77° |
| 2026-04-18 07:44 | 40.52000 | 23.42426 | 34944 ft | 488 kts | 77° |
| 2026-04-18 07:45 | 40.53264 | 23.51177 | 34948 ft | 490 kts | 77° |
| 2026-04-18 07:45 | 40.54519 | 23.59984 | 34950 ft | 489 kts | 77° |
| 2026-04-18 07:46 | 40.55764 | 23.68786 | 34953 ft | 489 kts | 78° |
| 2026-04-18 07:46 | 40.57003 | 23.77589 | 34952 ft | 489 kts | 78° |
| 2026-04-18 07:47 | 40.58229 | 23.86365 | 34943 ft | 488 kts | 78° |
| 2026-04-18 07:47 | 40.59450 | 23.95113 | 34940 ft | 490 kts | 78° |
| 2026-04-18 07:48 | 40.61088 | 24.03803 | 34933 ft | 488 kts | 72° |
| 2026-04-18 07:48 | 40.63119 | 24.12308 | 34937 ft | 488 kts | 70° |
| 2026-04-18 07:49 | 40.65205 | 24.20755 | 34940 ft | 489 kts | 70° |
| 2026-04-18 07:49 | 40.67268 | 24.29292 | 34942 ft | 488 kts | 71° |
| 2026-04-18 07:50 | 40.69276 | 24.37795 | 34950 ft | 488 kts | 71° |
| 2026-04-18 07:50 | 40.71261 | 24.46326 | 34951 ft | 488 kts | 71° |
| 2026-04-18 07:51 | 40.73234 | 24.54870 | 34953 ft | 488 kts | 71° |
| 2026-04-18 07:51 | 40.75201 | 24.63435 | 34954 ft | 488 kts | 71° |
| 2026-04-18 07:52 | 40.77168 | 24.72036 | 34956 ft | 489 kts | 72° |
| 2026-04-18 07:52 | 40.79134 | 24.80652 | 34957 ft | 489 kts | 72° |
| 2026-04-18 07:53 | 40.81094 | 24.89267 | 34963 ft | 490 kts | 72° |
| 2026-04-18 07:53 | 40.83036 | 24.97831 | 34962 ft | 491 kts | 72° |
| 2026-04-18 07:54 | 40.84995 | 25.06511 | 34965 ft | 490 kts | 72° |
| 2026-04-18 07:54 | 40.86936 | 25.15143 | 34961 ft | 489 kts | 72° |
| 2026-04-18 07:55 | 40.88858 | 25.23723 | 34966 ft | 489 kts | 72° |
| 2026-04-18 07:55 | 40.90789 | 25.32378 | 34958 ft | 489 kts | 72° |
| 2026-04-18 07:56 | 40.92705 | 25.40988 | 34951 ft | 491 kts | 72° |
| 2026-04-18 07:56 | 40.94638 | 25.49705 | 34961 ft | 491 kts | 72° |
| 2026-04-18 07:57 | 40.96557 | 25.58391 | 34950 ft | 491 kts | 72° |
| 2026-04-18 07:57 | 40.98467 | 25.67068 | 34950 ft | 491 kts | 73° |
| 2026-04-18 07:58 | 41.01317 | 25.80083 | 34958 ft | 491 kts | 73° |
| 2026-04-18 07:59 | 41.03207 | 25.88759 | 34948 ft | 488 kts | 73° |
| 2026-04-18 07:59 | 41.04143 | 25.93075 | 34718 ft | 482 kts | 73° |
| 2026-04-18 07:59 | 41.05060 | 25.97306 | 34289 ft | 479 kts | 73° |
| 2026-04-18 07:59 | 41.05980 | 26.01559 | 33635 ft | 480 kts | 73° |
| 2026-04-18 08:00 | 41.06900 | 26.05817 | 32888 ft | 483 kts | 73° |
| 2026-04-18 08:00 | 41.07814 | 26.10061 | 32316 ft | 481 kts | 74° |
| 2026-04-18 08:00 | 41.08733 | 26.14335 | 31721 ft | 479 kts | 74° |
| 2026-04-18 08:00 | 41.09638 | 26.18548 | 31131 ft | 477 kts | 74° |
| 2026-04-18 08:01 | 41.10534 | 26.22735 | 30545 ft | 475 kts | 74° |
| 2026-04-18 08:01 | 41.11295 | 26.27031 | 29922 ft | 472 kts | 81° |
| 2026-04-18 08:01 | 41.11568 | 26.31378 | 29306 ft | 468 kts | 92° |
| 2026-04-18 08:01 | 41.11166 | 26.35588 | 28685 ft | 457 kts | 105° |
| 2026-04-18 08:02 | 41.10252 | 26.39507 | 28160 ft | 440 kts | 111° |
| 2026-04-18 08:02 | 41.09185 | 26.43221 | 27608 ft | 426 kts | 113° |
| 2026-04-18 08:02 | 41.08078 | 26.46804 | 27063 ft | 414 kts | 114° |
| 2026-04-18 08:02 | 41.06973 | 26.50264 | 26580 ft | 407 kts | 114° |
| 2026-04-18 08:03 | 41.05850 | 26.53740 | 26013 ft | 406 kts | 114° |
| 2026-04-18 08:03 | 41.04771 | 26.57131 | 25494 ft | 404 kts | 112° |
| 2026-04-18 08:03 | 41.03866 | 26.60653 | 25011 ft | 402 kts | 103° |
| 2026-04-18 08:03 | 41.03474 | 26.64305 | 24962 ft | 403 kts | 93° |
| 2026-04-18 08:04 | 41.03400 | 26.68096 | 24920 ft | 414 kts | 90° |
| 2026-04-18 08:04 | 41.03453 | 26.71887 | 24775 ft | 409 kts | 88° |
| 2026-04-18 08:04 | 41.03556 | 26.75603 | 24303 ft | 406 kts | 88° |
| 2026-04-18 08:04 | 41.03674 | 26.79330 | 23790 ft | 403 kts | 88° |
| 2026-04-18 08:05 | 41.03786 | 26.83033 | 23262 ft | 401 kts | 88° |
| 2026-04-18 08:05 | 41.03884 | 26.86731 | 22798 ft | 397 kts | 88° |
| 2026-04-18 08:05 | 41.03852 | 26.90377 | 22273 ft | 394 kts | 94° |
| 2026-04-18 08:05 | 41.03542 | 26.93970 | 21800 ft | 390 kts | 98° |
| 2026-04-18 08:06 | 41.03077 | 26.97491 | 21112 ft | 386 kts | 100° |
| 2026-04-18 08:06 | 41.02547 | 27.00964 | 20369 ft | 381 kts | 101° |
| 2026-04-18 08:06 | 41.02013 | 27.04339 | 19552 ft | 377 kts | 100° |
| 2026-04-18 08:06 | 41.01479 | 27.07734 | 18747 ft | 374 kts | 100° |
| 2026-04-18 08:07 | 41.00959 | 27.11074 | 18194 ft | 367 kts | 99° |
| 2026-04-18 08:07 | 41.00458 | 27.14336 | 17621 ft | 366 kts | 99° |
| 2026-04-18 08:07 | 40.99961 | 27.17636 | 17116 ft | 364 kts | 98° |
| 2026-04-18 08:07 | 40.99469 | 27.20944 | 16612 ft | 362 kts | 98° |
| 2026-04-18 08:08 | 40.98993 | 27.24177 | 16108 ft | 361 kts | 98° |
| 2026-04-18 08:08 | 40.98517 | 27.27421 | 15600 ft | 359 kts | 98° |
| 2026-04-18 08:08 | 40.98047 | 27.30621 | 15088 ft | 357 kts | 98° |
| 2026-04-18 08:08 | 40.97574 | 27.33834 | 14579 ft | 355 kts | 97° |
| 2026-04-18 08:09 | 40.97105 | 27.37003 | 14070 ft | 343 kts | 97° |
| 2026-04-18 08:09 | 40.96655 | 27.40035 | 13644 ft | 334 kts | 97° |
| 2026-04-18 08:09 | 40.96127 | 27.43032 | 13115 ft | 336 kts | 102° |
| 2026-04-18 08:09 | 40.95377 | 27.45963 | 12628 ft | 336 kts | 106° |
| 2026-04-18 08:10 | 40.94530 | 27.48798 | 12185 ft | 334 kts | 108° |
| 2026-04-18 08:10 | 40.93644 | 27.51637 | 11708 ft | 333 kts | 108° |
| 2026-04-18 08:10 | 40.92763 | 27.54466 | 11234 ft | 331 kts | 108° |
| 2026-04-18 08:10 | 40.91909 | 27.57254 | 10745 ft | 329 kts | 107° |
| 2026-04-18 08:11 | 40.91100 | 27.60090 | 10385 ft | 321 kts | 102° |
| 2026-04-18 08:11 | 40.90664 | 27.62899 | 10228 ft | 305 kts | 91° |
| 2026-04-18 08:11 | 40.90543 | 27.65603 | 10118 ft | 290 kts | 87° |
| 2026-04-18 08:11 | 40.90526 | 27.68258 | 9839 ft | 285 kts | 86° |
| 2026-04-18 08:12 | 40.90517 | 27.70874 | 9407 ft | 282 kts | 86° |
| 2026-04-18 08:12 | 40.90480 | 27.73407 | 9092 ft | 270 kts | 87° |
| 2026-04-18 08:12 | 40.90480 | 27.75792 | 8984 ft | 253 kts | 81° |
| 2026-04-18 08:12 | 40.90708 | 27.78061 | 8985 ft | 247 kts | 75° |
| 2026-04-18 08:13 | 40.91042 | 27.80275 | 8985 ft | 248 kts | 74° |
| 2026-04-18 08:13 | 40.91392 | 27.82520 | 8981 ft | 248 kts | 75° |
| 2026-04-18 08:13 | 40.91723 | 27.84762 | 8985 ft | 247 kts | 75° |
| 2026-04-18 08:13 | 40.92040 | 27.87005 | 8992 ft | 249 kts | 75° |
| 2026-04-18 08:14 | 40.92339 | 27.89226 | 8981 ft | 248 kts | 77° |
| 2026-04-18 08:14 | 40.92594 | 27.91485 | 8981 ft | 249 kts | 78° |
| 2026-04-18 08:14 | 40.92829 | 27.93767 | 8987 ft | 248 kts | 78° |
| 2026-04-18 08:14 | 40.93065 | 27.96022 | 8983 ft | 249 kts | 77° |
| 2026-04-18 08:15 | 40.93309 | 27.98291 | 8974 ft | 248 kts | 77° |
| 2026-04-18 08:15 | 40.93553 | 28.00540 | 8980 ft | 249 kts | 77° |
| 2026-04-18 08:15 | 40.93799 | 28.02802 | 8974 ft | 249 kts | 78° |
| 2026-04-18 08:15 | 40.94038 | 28.05047 | 8979 ft | 249 kts | 78° |
| 2026-04-18 08:16 | 40.94253 | 28.07321 | 8997 ft | 250 kts | 83° |
| 2026-04-18 08:16 | 40.94163 | 28.09628 | 8973 ft | 253 kts | 93° |
| 2026-04-18 08:16 | 40.93868 | 28.11967 | 8976 ft | 256 kts | 95° |
| 2026-04-18 08:16 | 40.93568 | 28.14268 | 8983 ft | 256 kts | 94° |
| 2026-04-18 08:17 | 40.93301 | 28.16586 | 8980 ft | 254 kts | 92° |
| 2026-04-18 08:17 | 40.93064 | 28.18896 | 8973 ft | 253 kts | 92° |
| 2026-04-18 08:17 | 40.92842 | 28.21193 | 8979 ft | 254 kts | 92° |
| 2026-04-18 08:17 | 40.92617 | 28.23504 | 8980 ft | 255 kts | 92° |
| 2026-04-18 08:18 | 40.92380 | 28.25838 | 8970 ft | 253 kts | 92° |
| 2026-04-18 08:18 | 40.92145 | 28.28125 | 8975 ft | 253 kts | 92° |
| 2026-04-18 08:18 | 40.91913 | 28.30426 | 8976 ft | 253 kts | 92° |
| 2026-04-18 08:18 | 40.91684 | 28.32734 | 8982 ft | 252 kts | 92° |
| 2026-04-18 08:19 | 40.91457 | 28.35024 | 8986 ft | 253 kts | 92° |
| 2026-04-18 08:19 | 40.91224 | 28.37342 | 8987 ft | 253 kts | 92° |
| 2026-04-18 08:19 | 40.90990 | 28.39651 | 8985 ft | 254 kts | 92° |
| 2026-04-18 08:19 | 40.90758 | 28.41933 | 8985 ft | 253 kts | 92° |
| 2026-04-18 08:20 | 40.90520 | 28.44260 | 8953 ft | 250 kts | 92° |
| 2026-04-18 08:20 | 40.90290 | 28.46468 | 8763 ft | 239 kts | 92° |
| 2026-04-18 08:20 | 40.90068 | 28.48592 | 8532 ft | 232 kts | 91° |
| 2026-04-18 08:20 | 40.89853 | 28.50688 | 8232 ft | 228 kts | 91° |
| 2026-04-18 08:21 | 40.89642 | 28.52741 | 7958 ft | 223 kts | 91° |
| 2026-04-18 08:21 | 40.89435 | 28.54757 | 7689 ft | 220 kts | 91° |
| 2026-04-18 08:21 | 40.89229 | 28.56769 | 7425 ft | 219 kts | 91° |
| 2026-04-18 08:21 | 40.89135 | 28.58735 | 7161 ft | 213 kts | 79° |
| 2026-04-18 08:22 | 40.89496 | 28.60560 | 6923 ft | 201 kts | 64° |
| 2026-04-18 08:22 | 40.90017 | 28.62278 | 6661 ft | 200 kts | 64° |
| 2026-04-18 08:22 | 40.90493 | 28.63988 | 6415 ft | 199 kts | 66° |
| 2026-04-18 08:22 | 40.90942 | 28.65712 | 6250 ft | 198 kts | 66° |
| 2026-04-18 08:23 | 40.91391 | 28.67438 | 6189 ft | 198 kts | 66° |
| 2026-04-18 08:23 | 40.92009 | 28.69047 | 6091 ft | 196 kts | 49° |
| 2026-04-18 08:23 | 40.93090 | 28.70122 | 5870 ft | 195 kts | 28° |
| 2026-04-18 08:23 | 40.94311 | 28.70919 | 5622 ft | 193 kts | 28° |
| 2026-04-18 08:24 | 40.95472 | 28.71729 | 5395 ft | 185 kts | 29° |
| 2026-04-18 08:24 | 40.96597 | 28.72475 | 5172 ft | 178 kts | 24° |
| 2026-04-18 08:24 | 40.97751 | 28.72933 | 5021 ft | 169 kts | 14° |
| 2026-04-18 08:24 | 40.98912 | 28.73133 | 5042 ft | 170 kts | 9° |
| 2026-04-18 08:25 | 41.00113 | 28.73218 | 5039 ft | 171 kts | 6° |
| 2026-04-18 08:25 | 41.01290 | 28.73237 | 5041 ft | 171 kts | 5° |
| 2026-04-18 08:25 | 41.02481 | 28.73230 | 5039 ft | 171 kts | 5° |
| 2026-04-18 08:25 | 41.03664 | 28.73212 | 4941 ft | 166 kts | 4° |
| 2026-04-18 08:26 | 41.04826 | 28.73193 | 4623 ft | 166 kts | 4° |
| 2026-04-18 08:26 | 41.05956 | 28.73171 | 4392 ft | 162 kts | 4° |
| 2026-04-18 08:26 | 41.07098 | 28.73150 | 4168 ft | 165 kts | 4° |
| 2026-04-18 08:26 | 41.08242 | 28.73128 | 3932 ft | 164 kts | 3° |
| 2026-04-18 08:27 | 41.09391 | 28.73105 | 3700 ft | 164 kts | 4° |
| 2026-04-18 08:27 | 41.10516 | 28.73082 | 3462 ft | 157 kts | 3° |
| 2026-04-18 08:27 | 41.11575 | 28.73061 | 3262 ft | 152 kts | 4° |
| 2026-04-18 08:27 | 41.12633 | 28.73042 | 3053 ft | 152 kts | 4° |
| 2026-04-18 08:28 | 41.13691 | 28.73022 | 2841 ft | 152 kts | 4° |
| 2026-04-18 08:28 | 41.14724 | 28.72999 | 2654 ft | 149 kts | 4° |
| 2026-04-18 08:28 | 41.15749 | 28.72984 | 2429 ft | 144 kts | 4° |
| 2026-04-18 08:28 | 41.16743 | 28.72965 | 2229 ft | 144 kts | 3° |
| 2026-04-18 08:29 | 41.17757 | 28.72942 | 2041 ft | 145 kts | 3° |
| 2026-04-18 08:29 | 41.18756 | 28.72923 | 1836 ft | 140 kts | 2° |
| 2026-04-18 08:29 | 41.19716 | 28.72903 | 1645 ft | 136 kts | 3° |
| 2026-04-18 08:29 | 41.20680 | 28.72884 | 1471 ft | 139 kts | 2° |
| 2026-04-18 08:30 | 41.21642 | 28.72854 | 1348 ft | 136 kts | 2° |
| 2026-04-18 08:30 | 41.22591 | 28.72838 | 1111 ft | 136 kts | 2° |
| 2026-04-18 08:30 | 41.23531 | 28.72842 | 943 ft | 134 kts | 2° |
| 2026-04-18 08:30 | 41.24467 | 28.72813 | 705 ft | 136 kts | 0° |
| 2026-04-18 08:31 | 41.25408 | 28.72795 | 543 ft | 133 kts | 360° |
| 2026-04-18 08:31 | 41.26319 | 28.72767 | 389 ft | 130 kts | 1° |
| 2026-04-18 08:31 | 41.27176 | 28.72755 | 333 ft | 101 kts | 360° |
| 2026-04-18 08:31 | 41.27650 | 28.72745 | 333 ft | 42 kts | 1° |
| 2026-04-18 08:32 | 41.27871 | 28.72747 | 333 ft | 20 kts | 3° |
| 2026-04-18 08:32 | 41.27988 | 28.72791 | 334 ft | 14 kts | 21° |
| 2026-04-18 08:32 | 41.28042 | 28.72824 | 333 ft | 0 kts | 26° |
| 2026-04-18 08:33 | 41.28064 | 28.72838 | 333 ft | 6 kts | 26° |
| 2026-04-18 08:33 | 41.28102 | 28.72863 | 333 ft | 7 kts | 36° |
| 2026-04-18 08:33 | 41.28118 | 28.72930 | 333 ft | 7 kts | 114° |
| 2026-04-18 08:33 | 41.28071 | 28.72962 | 333 ft | 9 kts | 170° |
| 2026-04-18 08:34 | 41.27984 | 28.72965 | 333 ft | 15 kts | 181° |
| 2026-04-18 08:34 | 41.27862 | 28.72967 | 333 ft | 19 kts | 178° |
| 2026-04-18 08:34 | 41.27715 | 28.72970 | 333 ft | 20 kts | 179° |
| 2026-04-18 08:34 | 41.27580 | 28.72973 | 333 ft | 18 kts | 179° |
| 2026-04-18 08:35 | 41.27463 | 28.72975 | 333 ft | 15 kts | 180° |
| 2026-04-18 08:35 | 41.27344 | 28.72975 | 333 ft | 18 kts | 179° |
| 2026-04-18 08:35 | 41.27228 | 28.72980 | 333 ft | 15 kts | 179° |
| 2026-04-18 08:35 | 41.27129 | 28.72983 | 333 ft | 13 kts | 179° |
| 2026-04-18 08:36 | 41.27039 | 28.72984 | 333 ft | 11 kts | 180° |
| 2026-04-18 08:36 | 41.26968 | 28.72995 | 333 ft | 9 kts | 151° |
| 2026-04-18 08:36 | 41.26945 | 28.73066 | 333 ft | 10 kts | 94° |
| 2026-04-18 08:36 | 41.26944 | 28.73183 | 333 ft | 12 kts | 88° |
| 2026-04-18 08:37 | 41.26947 | 28.73281 | 333 ft | 11 kts | 88° |
| 2026-04-18 08:37 | 41.26950 | 28.73395 | 333 ft | 11 kts | 88° |
| 2026-04-18 08:37 | 41.26953 | 28.73495 | 333 ft | 10 kts | 87° |
| 2026-04-18 08:37 | 41.26957 | 28.73587 | 333 ft | 9 kts | 88° |
| 2026-04-18 08:38 | 41.26957 | 28.73673 | 333 ft | 11 kts | 90° |
| 2026-04-18 08:38 | 41.26957 | 28.73761 | 333 ft | 7 kts | 89° |
| 2026-04-18 08:38 | 41.26955 | 28.73814 | 333 ft | 4 kts | 98° |
| 2026-04-18 08:38 | 41.26943 | 28.73854 | 333 ft | 5 kts | 139° |
| 2026-04-18 08:39 | 41.26895 | 28.73870 | 333 ft | 8 kts | 177° |
| 2026-04-18 08:39 | 41.26830 | 28.73873 | 333 ft | 10 kts | 179° |
| 2026-04-18 08:39 | 41.26749 | 28.73875 | 333 ft | 12 kts | 180° |
| 2026-04-18 08:39 | 41.26698 | 28.73875 | 333 ft | 5 kts | 180° |
| 2026-04-18 08:40 | 41.26660 | 28.73876 | 333 ft | 6 kts | 179° |
| 2026-04-18 08:40 | 41.26621 | 28.73877 | 333 ft | 4 kts | 179° |
| 2026-04-18 08:40 | 41.26591 | 28.73876 | 333 ft | 4 kts | 185° |
| 2026-04-18 08:40 | 41.26568 | 28.73865 | 333 ft | 2 kts | 217° |
| 2026-04-18 08:41 | 41.26562 | 28.73842 | 333 ft | 2 kts | 270° |
| 2026-04-18 08:41 | 41.26563 | 28.73815 | 333 ft | 3 kts | 274° |
| 2026-04-18 08:41 | 41.26564 | 28.73794 | 333 ft | 1 kts | 271° |
| 2026-04-18 08:41 | 41.26564 | 28.73778 | 333 ft | 2 kts | 272° |
| 2026-04-18 08:42 | 41.26564 | 28.73761 | 333 ft | 1 kts | 270° |
| 2026-04-18 08:42 | 41.26564 | 28.73755 | 333 ft | 0 kts | 270° |